createdAt,value
2023-01-09T00:01:12.212Z,3.6
2023-01-09T00:03:11.884Z,3.6
2023-01-09T00:07:12.351Z,3.5
2023-01-09T00:09:11.905Z,3.4
2023-01-09T00:11:12.409Z,3.4
2023-01-09T00:13:12.279Z,3.4
2023-01-09T00:15:12.318Z,3.3
2023-01-09T00:17:12.549Z,3.3
2023-01-09T00:21:11.925Z,3.5
2023-01-09T00:23:12.277Z,3.4
2023-01-09T00:25:12.237Z,3.5
2023-01-09T00:27:11.815Z,3.5
2023-01-09T00:29:12.279Z,3.6
2023-01-09T00:33:12.317Z,3.6
2023-01-09T00:35:11.812Z,3.7
2023-01-09T00:37:12.618Z,3.6
2023-01-09T00:41:11.805Z,3.7
2023-01-09T00:43:13.131Z,3.7
2023-01-09T00:45:11.826Z,3.6
2023-01-09T00:47:11.826Z,3.6
2023-01-09T00:49:12.315Z,3.5
2023-01-09T00:51:11.906Z,3.6
2023-01-09T00:53:12.734Z,3.5
2023-01-09T00:55:12.274Z,3.6
2023-01-09T00:57:11.839Z,3.6
2023-01-09T00:59:11.786Z,3.7
2023-01-09T01:01:12.485Z,3.6
2023-01-09T01:03:11.856Z,3.6
2023-01-09T01:05:11.812Z,3.6
2023-01-09T01:09:12.324Z,3.7
2023-01-09T01:11:12.686Z,3.8
2023-01-09T01:13:12.273Z,3.7
2023-01-09T01:15:11.844Z,3.8
2023-01-09T01:17:12.232Z,3.8
2023-01-09T01:19:12.329Z,3.8
2023-01-09T01:21:11.938Z,3.7
2023-01-09T01:25:12.913Z,3.8
2023-01-09T01:27:11.971Z,3.8
2023-01-09T01:29:12.234Z,3.7
2023-01-09T01:31:13.043Z,3.7
2023-01-09T01:33:11.917Z,3.6
2023-01-09T01:35:11.804Z,3.6
2023-01-09T01:41:11.823Z,3.7
2023-01-09T01:45:11.845Z,3.6
2023-01-09T01:47:12.496Z,3.6
2023-01-09T01:49:12.429Z,3.7
2023-01-09T01:51:12.733Z,3.7
2023-01-09T01:53:11.826Z,3.6
2023-01-09T01:55:12.384Z,3.6
2023-01-09T01:57:11.962Z,3.6
2023-01-09T01:59:11.813Z,3.5
2023-01-09T02:01:12.402Z,3.6
2023-01-09T02:03:11.835Z,3.6
2023-01-09T02:05:11.814Z,3.5
2023-01-09T02:07:13.059Z,3.5
2023-01-09T02:09:11.862Z,3.6
2023-01-09T02:11:11.818Z,3.7
2023-01-09T02:13:12.025Z,3.8
2023-01-09T02:15:11.841Z,3.8
2023-01-09T02:21:11.897Z,3.8
2023-01-09T02:23:12.011Z,3.8
2023-01-09T02:25:12.042Z,3.8
2023-01-09T02:27:11.830Z,3.8
2023-01-09T02:29:12.234Z,3.8
2023-01-09T02:31:12.111Z,3.8
2023-01-09T02:33:11.853Z,3.8
2023-01-09T02:35:12.778Z,3.8
2023-01-09T02:37:12.072Z,3.9
2023-01-09T02:39:11.812Z,3.9
2023-01-09T02:41:12.030Z,3.9
2023-01-09T02:43:12.063Z,4
2023-01-09T02:45:11.836Z,4.1
2023-01-09T02:47:12.366Z,4.1
2023-01-09T02:49:12.756Z,4.1
2023-01-09T02:51:11.845Z,4.1
2023-01-09T02:53:12.020Z,4.1
2023-01-09T02:55:12.058Z,4.1
2023-01-09T02:57:11.848Z,4.2
2023-01-09T02:59:12.025Z,4.2
2023-01-09T03:01:12.202Z,4.2
2023-01-09T03:03:12.006Z,4.2
2023-01-09T03:05:12.061Z,4.2
2023-01-09T03:07:12.215Z,4.3
2023-01-09T03:09:11.858Z,4.3
2023-01-09T03:13:11.813Z,4.3
2023-01-09T03:15:11.858Z,4.3
2023-01-09T03:19:15.196Z,4.4
2023-01-09T03:21:14.607Z,4.4
2023-01-09T03:23:18.712Z,4.4
2023-01-09T03:25:12.508Z,4.4
2023-01-09T03:27:15.602Z,4.4
2023-01-09T03:29:12.349Z,4.4
2023-01-09T03:31:11.928Z,4.4
2023-01-09T03:33:12.415Z,4.4
2023-01-09T03:35:12.344Z,4.4
2023-01-09T03:37:11.831Z,4.4
2023-01-09T03:39:12.240Z,4.4
2023-01-09T03:43:11.846Z,4.5
2023-01-09T03:47:12.298Z,4.7
2023-01-09T03:49:11.808Z,4.8
2023-01-09T03:51:11.872Z,4.8
2023-01-09T03:53:12.363Z,4.8
2023-01-09T03:55:11.939Z,4.9
2023-01-09T03:57:12.275Z,4.9
2023-01-09T03:59:12.781Z,5
2023-01-09T04:01:11.982Z,5.1
2023-01-09T04:05:12.330Z,5.2
2023-01-09T04:07:12.209Z,5.2
2023-01-09T04:09:12.242Z,5.2
2023-01-09T04:11:12.367Z,5.3
2023-01-09T04:13:11.857Z,5.3
2023-01-09T04:15:12.546Z,5.4
2023-01-09T04:17:15.077Z,5.4
2023-01-09T04:19:12.580Z,5.5
2023-01-09T04:21:15.096Z,5.5
2023-01-09T04:23:12.327Z,5.5
2023-01-09T04:29:18.648Z,5.4
2023-01-09T04:31:11.893Z,5.3
2023-01-09T04:35:12.571Z,5.4
2023-01-09T04:39:12.143Z,5.5
2023-01-09T04:43:14.711Z,5.8
2023-01-09T04:45:11.865Z,5.8
2023-01-09T04:47:13.124Z,5.9
2023-01-09T04:49:11.819Z,5.9
2023-01-09T04:51:13.958Z,5.9
2023-01-09T04:53:12.772Z,6
2023-01-09T04:55:15.142Z,5.9
2023-01-09T04:57:11.877Z,6
2023-01-09T04:59:12.401Z,6
2023-01-09T05:03:11.972Z,6.1
2023-01-09T05:07:11.819Z,6
2023-01-09T05:09:11.923Z,6
2023-01-09T05:11:12.816Z,6
2023-01-09T05:13:18.327Z,5.9
2023-01-09T05:15:11.857Z,5.9
2023-01-09T05:17:12.941Z,5.9
2023-01-09T05:19:11.909Z,5.9
2023-01-09T05:21:11.861Z,5.8
2023-01-09T05:23:12.316Z,5.8
2023-01-09T05:25:11.829Z,5.8
2023-01-09T05:27:12.016Z,5.7
2023-01-09T05:29:12.518Z,5.7
2023-01-09T05:31:11.826Z,5.7
2023-01-09T05:33:11.855Z,5.7
2023-01-09T05:35:12.737Z,5.7
2023-01-09T05:37:11.863Z,5.7
2023-01-09T05:39:16.328Z,5.7
2023-01-09T05:41:12.361Z,5.7
2023-01-09T05:44:14.777Z,5.6
2023-01-09T05:48:14.514Z,5.7
2023-01-09T05:50:15.912Z,5.8
2023-01-09T05:52:17.848Z,5.8
2023-01-09T05:54:15.898Z,5.7
2023-01-09T05:56:14.488Z,5.7
2023-01-09T05:58:18.047Z,5.7
2023-01-09T06:00:14.508Z,5.7
2023-01-09T06:02:15.964Z,5.7
2023-01-09T06:04:17.743Z,5.7
2023-01-09T06:06:17.595Z,5.7
2023-01-09T06:08:17.787Z,5.6
2023-01-09T06:10:17.012Z,5.6
2023-01-09T06:12:19.563Z,5.6
2023-01-09T06:14:16.005Z,5.5
2023-01-09T06:16:14.589Z,5.5
2023-01-09T06:18:16.848Z,5.5
2023-01-09T06:20:14.543Z,5.5
2023-01-09T06:22:17.245Z,5.4
2023-01-09T06:24:15.944Z,5.4
2023-01-09T06:26:17.362Z,5.4
2023-01-09T06:28:15.926Z,5.4
2023-01-09T06:30:16.854Z,5.3
2023-01-09T06:32:17.735Z,5.3
2023-01-09T06:34:15.950Z,5.2
2023-01-09T06:36:16.784Z,5.2
2023-01-09T06:38:18.405Z,5.2
2023-01-09T06:40:16.293Z,5.1
2023-01-09T06:42:14.498Z,5.1
2023-01-09T06:44:14.468Z,5.1
2023-01-09T06:46:17.737Z,5
2023-01-09T06:48:17.280Z,4.9
2023-01-09T06:50:16.988Z,4.8
2023-01-09T06:52:17.285Z,4.7
2023-01-09T06:54:18.614Z,4.7
2023-01-09T06:56:18.935Z,4.6
2023-01-09T06:58:18.110Z,4.6
2023-01-09T07:00:13.720Z,4.6
2023-01-09T07:02:18.602Z,4.5
2023-01-09T07:04:18.609Z,4.5
2023-01-09T07:06:16.049Z,4.5
2023-01-09T07:08:17.680Z,4.5
2023-01-09T07:10:19.324Z,4.4
2023-01-09T07:12:17.277Z,4.4
2023-01-09T07:14:14.112Z,4.4
2023-01-09T07:16:15.865Z,4.3
2023-01-09T07:18:15.406Z,4.3
2023-01-09T07:20:17.538Z,4.2
2023-01-09T07:22:18.220Z,4.3
2023-01-09T07:24:13.635Z,4.3
2023-01-09T07:26:13.659Z,4.3
2023-01-09T07:28:17.470Z,4.3
2023-01-09T07:30:16.949Z,4.4
2023-01-09T07:32:14.535Z,4.4
2023-01-09T07:34:15.507Z,4.5
2023-01-09T07:36:19.607Z,4.5
2023-01-09T07:38:18.238Z,4.5
2023-01-09T07:40:17.726Z,4.4
2023-01-09T07:44:18.585Z,4.4
2023-01-09T07:46:17.576Z,4.5
2023-01-09T07:48:17.310Z,4.5
2023-01-09T07:50:19.094Z,4.5
2023-01-09T07:52:18.093Z,4.6
2023-01-09T07:54:14.013Z,4.5
2023-01-09T07:56:17.631Z,4.5
2023-01-09T07:58:15.851Z,4.6
2023-01-09T08:00:15.314Z,4.6
2023-01-09T08:02:16.941Z,4.5
2023-01-09T08:04:14.030Z,4.5
2023-01-09T08:06:18.205Z,4.5
2023-01-09T08:08:15.802Z,4.4
2023-01-09T08:10:16.072Z,4.4
2023-01-09T08:12:19.443Z,4.4
2023-01-09T08:14:16.405Z,4.4
2023-01-09T08:16:15.149Z,4.3
2023-01-09T08:18:17.729Z,4.3
2023-01-09T08:20:14.121Z,4.3
2023-01-09T08:22:16.890Z,4.3
2023-01-09T08:24:13.985Z,4.3
2023-01-09T08:26:15.049Z,4.4
2023-01-09T08:28:16.721Z,4.4
2023-01-09T08:30:17.146Z,4.4
2023-01-09T08:32:14.026Z,4.4
2023-01-09T08:34:18.169Z,4.4
2023-01-09T08:36:17.769Z,4.4
2023-01-09T08:38:16.699Z,4.4
2023-01-09T08:40:15.778Z,4.4
2023-01-09T08:42:17.127Z,4.5
2023-01-09T08:44:16.041Z,4.4
2023-01-09T08:46:18.457Z,4.5
2023-01-09T08:48:13.948Z,4.5
2023-01-09T08:50:19.409Z,4.5
2023-01-09T08:52:15.420Z,4.6
2023-01-09T08:54:16.380Z,4.5
2023-01-09T08:56:18.679Z,4.5
2023-01-09T09:00:18.158Z,4.4
2023-01-09T09:02:16.012Z,4.4
2023-01-09T09:04:17.290Z,4.3
2023-01-09T09:06:13.701Z,4.5
2023-01-09T09:08:16.438Z,4.4
2023-01-09T09:10:13.695Z,4.4
2023-01-09T09:12:15.412Z,4.4
2023-01-09T09:14:18.575Z,4.4
2023-01-09T09:16:17.782Z,4.5
2023-01-09T09:18:18.732Z,4.5
2023-01-09T09:20:15.456Z,4.5
2023-01-09T09:22:18.255Z,4.6
2023-01-09T09:24:17.075Z,4.6
2023-01-09T09:26:14.015Z,4.6
2023-01-09T09:28:18.594Z,4.6
2023-01-09T09:30:16.484Z,4.7
2023-01-09T09:34:16.839Z,4.7
2023-01-09T09:36:14.040Z,4.8
2023-01-09T09:38:17.124Z,4.8
2023-01-09T09:40:18.533Z,4.8
2023-01-09T09:42:19.664Z,4.8
2023-01-09T09:44:17.542Z,4.9
2023-01-09T09:46:17.382Z,4.9
2023-01-09T09:48:18.492Z,5
2023-01-09T09:50:19.127Z,5
2023-01-09T09:52:16.830Z,4.9
2023-01-09T09:54:15.428Z,4.8
2023-01-09T09:56:18.980Z,4.8
2023-01-09T09:58:19.793Z,4.8
2023-01-09T10:00:15.458Z,4.8
2023-01-09T10:02:18.940Z,4.8
2023-01-09T10:04:17.766Z,4.8
2023-01-09T10:06:20.475Z,4.9
2023-01-09T10:08:17.714Z,4.9
2023-01-09T10:10:16.200Z,4.9
2023-01-09T10:14:24.120Z,4.9
2023-01-09T10:16:16.746Z,4.9
2023-01-09T10:18:15.085Z,4.9
2023-01-09T10:20:15.590Z,5
2023-01-09T10:22:17.532Z,5
2023-01-09T10:24:16.317Z,5
2023-01-09T10:26:17.259Z,5
2023-01-09T10:28:16.929Z,5
2023-01-09T10:30:16.865Z,5
2023-01-09T10:32:18.292Z,5
2023-01-09T10:34:16.407Z,5
2023-01-09T10:36:18.992Z,5.1
2023-01-09T10:38:20.039Z,5.1
2023-01-09T10:40:13.593Z,5.1
2023-01-09T10:42:17.036Z,5.1
2023-01-09T10:44:18.678Z,5.2
2023-01-09T10:46:15.412Z,5.3
2023-01-09T10:48:17.367Z,5.3
2023-01-09T10:50:16.489Z,5.4
2023-01-09T10:52:15.790Z,5.4
2023-01-09T10:54:17.400Z,5.6
2023-01-09T10:56:18.060Z,5.6
2023-01-09T10:58:17.718Z,5.6
2023-01-09T11:00:19.277Z,5.6
2023-01-09T11:02:18.377Z,5.8
2023-01-09T11:04:15.901Z,6
2023-01-09T11:06:16.464Z,5.9
2023-01-09T11:08:16.383Z,6
2023-01-09T11:10:18.300Z,6
2023-01-09T11:12:16.846Z,5.9
2023-01-09T11:14:16.524Z,6
2023-01-09T11:16:13.623Z,5.8
2023-01-09T11:18:13.667Z,5.7
2023-01-09T11:20:19.042Z,5.7
2023-01-09T11:24:13.638Z,5.8
2023-01-09T11:26:24.071Z,5.7
2023-01-09T11:28:13.613Z,5.7
2023-01-09T11:30:17.903Z,5.7
2023-01-09T11:32:16.045Z,5.7
2023-01-09T11:34:16.930Z,5.7
2023-01-09T11:36:16.809Z,5.8
2023-01-09T11:38:15.079Z,5.9
2023-01-09T11:40:17.432Z,5.8
2023-01-09T11:42:15.350Z,5.9
2023-01-09T11:44:17.920Z,5.8
2023-01-09T11:46:16.077Z,5.9
2023-01-09T11:48:15.881Z,6
2023-01-09T11:50:14.101Z,5.8
2023-01-09T11:52:17.714Z,5.8
2023-01-09T11:54:17.675Z,5.9
2023-01-09T11:56:13.610Z,5.8
2023-01-09T11:58:16.766Z,5.9
2023-01-09T12:00:17.437Z,5.9
2023-01-09T12:02:16.455Z,6
2023-01-09T12:04:16.034Z,6.1
2023-01-09T12:06:16.074Z,6.2
2023-01-09T12:08:15.054Z,6.6
2023-01-09T12:10:18.210Z,7.1
2023-01-09T12:12:16.957Z,6.9
2023-01-09T12:14:16.894Z,7.5
2023-01-09T12:16:15.238Z,7.3
2023-01-09T12:18:17.752Z,7
2023-01-09T12:20:13.271Z,6.8
2023-01-09T12:22:19.123Z,6.8
2023-01-09T12:24:17.182Z,6.7
2023-01-09T12:26:13.590Z,6.3
2023-01-09T12:28:17.363Z,6.2
2023-01-09T12:32:16.052Z,6.3
2023-01-09T12:34:15.805Z,6.3
2023-01-09T12:36:18.736Z,6.3
2023-01-09T12:38:16.505Z,6.3
2023-01-09T12:40:15.941Z,6.2
2023-01-09T12:42:16.095Z,6.4
2023-01-09T12:44:27.324Z,6.3
2023-01-09T12:46:15.111Z,6.3
2023-01-09T12:48:13.662Z,6.5
2023-01-09T12:50:16.504Z,6.5
2023-01-09T12:52:18.259Z,6.6
2023-01-09T12:54:19.458Z,7.4
2023-01-09T12:56:15.266Z,7
2023-01-09T12:58:15.819Z,6.7
2023-01-09T13:00:16.043Z,6.6
2023-01-09T13:02:13.900Z,6.5
2023-01-09T13:04:16.509Z,6.4
2023-01-09T13:06:14.669Z,6.4
2023-01-09T13:08:16.512Z,6.3
2023-01-09T13:10:19.090Z,6.3
2023-01-09T13:12:13.750Z,6.2
2023-01-09T13:14:16.086Z,6.2
2023-01-09T13:16:16.360Z,6.2
2023-01-09T13:18:16.456Z,6.3
2023-01-09T13:20:16.053Z,6.3
2023-01-09T13:22:18.247Z,6.4
2023-01-09T13:24:16.927Z,6.4
2023-01-09T13:26:17.337Z,6.5
2023-01-09T13:28:14.724Z,7.1
2023-01-09T13:30:18.103Z,7.7
2023-01-09T13:32:13.676Z,7.4
2023-01-09T13:34:21.630Z,7.8
2023-01-09T13:36:17.990Z,8
2023-01-09T13:38:13.607Z,8.1
2023-01-09T13:40:19.571Z,8.1
2023-01-09T13:42:13.671Z,8.1
2023-01-09T13:44:16.933Z,8.1
2023-01-09T13:46:18.609Z,7.7
2023-01-09T13:48:13.589Z,7.6
2023-01-09T13:50:16.423Z,8.1
2023-01-09T13:52:13.682Z,8
2023-01-09T13:54:18.748Z,8
2023-01-09T13:56:18.215Z,8
2023-01-09T13:58:15.457Z,7.4
2023-01-09T14:00:17.345Z,8.1
2023-01-09T14:02:18.627Z,8
2023-01-09T14:04:15.193Z,8
2023-01-09T14:06:18.237Z,7.7
2023-01-09T14:08:23.450Z,7.1
2023-01-09T14:10:14.951Z,7
2023-01-09T14:12:17.807Z,6.9
2023-01-09T14:14:20.096Z,6.8
2023-01-09T14:16:19.275Z,6.8
2023-01-09T14:20:24.019Z,6.6
2023-01-09T14:24:47.388Z,6.4
2023-01-09T14:26:44.451Z,6.4
2023-01-09T14:28:40.826Z,6.4
2023-01-09T14:30:43.320Z,6.4
2023-01-09T14:32:43.940Z,6.3
2023-01-09T14:34:42.648Z,6.4
2023-01-09T14:36:42.275Z,6.3
2023-01-09T14:38:42.159Z,6.3
2023-01-09T14:40:40.272Z,6.1
2023-01-09T14:42:40.940Z,6.1
2023-01-09T14:44:44.843Z,6.1
2023-01-09T14:46:39.718Z,6
2023-01-09T14:52:41.619Z,5.8
2023-01-09T14:54:44.286Z,5.8
2023-01-09T14:56:43.422Z,5.8
2023-01-09T14:58:42.686Z,5.8
2023-01-09T15:00:44.076Z,5.7
2023-01-09T15:02:41.069Z,5.6
2023-01-09T15:04:42.965Z,5.6
2023-01-09T15:06:43.287Z,5.5
2023-01-09T15:08:44.851Z,5.5
2023-01-09T15:10:43.723Z,5.4
2023-01-09T15:12:42.053Z,5.4
2023-01-09T15:14:44.802Z,5.4
2023-01-09T15:16:43.888Z,5.4
2023-01-09T15:18:45.090Z,5.4
2023-01-09T15:20:43.762Z,5.3
2023-01-09T15:22:45.164Z,5.3
2023-01-09T15:24:39.887Z,5.2
2023-01-09T15:26:43.849Z,5.2
2023-01-09T15:28:39.803Z,5.2
2023-01-09T15:30:41.594Z,5.2
2023-01-09T15:32:43.767Z,5.2
2023-01-09T15:34:42.702Z,5.2
2023-01-09T15:36:43.175Z,5.1
2023-01-09T15:38:41.180Z,5.1
2023-01-09T15:40:45.035Z,4.9
2023-01-09T15:42:44.269Z,4.8
2023-01-09T15:44:44.486Z,4.7
2023-01-09T15:46:41.340Z,4.6
2023-01-09T15:48:41.696Z,4.6
2023-01-09T15:50:43.552Z,4.5
2023-01-09T15:52:43.948Z,4.5
2023-01-09T15:54:42.716Z,4.4
2023-01-09T15:56:41.294Z,4.4
2023-01-09T15:58:40.136Z,4.4
2023-01-09T16:00:44.026Z,4.4
2023-01-09T16:02:40.885Z,4.4
2023-01-09T16:04:42.050Z,4.5
2023-01-09T16:06:43.439Z,4.5
2023-01-09T16:08:44.950Z,4.4
2023-01-09T16:10:43.474Z,4.4
2023-01-09T16:12:43.944Z,4.5
2023-01-09T16:14:39.402Z,4.6
2023-01-09T16:18:39.729Z,4.6
2023-01-09T16:20:42.597Z,4.6
2023-01-09T16:22:42.027Z,4.6
2023-01-09T16:24:39.751Z,4.5
2023-01-09T16:26:42.771Z,4.4
2023-01-09T16:28:44.412Z,4.4
2023-01-09T16:30:41.549Z,4.4
2023-01-09T16:32:44.828Z,4.3
2023-01-09T16:34:42.565Z,4.1
2023-01-09T16:38:39.790Z,4.2
2023-01-09T16:40:42.361Z,4.1
2023-01-09T16:42:43.932Z,4.3
2023-01-09T16:44:41.194Z,4.3
2023-01-09T16:46:45.242Z,4.2
2023-01-09T16:48:41.708Z,4.2
2023-01-09T16:50:44.680Z,4.2
2023-01-09T16:52:42.301Z,4.1
2023-01-09T16:54:41.877Z,4.1
2023-01-09T16:56:40.988Z,4.2
2023-01-09T16:58:39.787Z,4.1
2023-01-09T17:00:45.474Z,4.1
2023-01-09T17:02:45.014Z,4.1
2023-01-09T17:04:41.979Z,4
2023-01-09T17:06:40.941Z,4
2023-01-09T17:08:44.820Z,4
2023-01-09T17:10:40.921Z,3.8
2023-01-09T17:12:45.002Z,3.8
2023-01-09T17:14:45.496Z,3.8
2023-01-09T17:16:39.790Z,3.8
2023-01-09T17:18:40.683Z,3.8
2023-01-09T17:20:43.955Z,3.8
2023-01-09T17:22:42.162Z,3.7
2023-01-09T17:24:41.492Z,3.7
2023-01-09T17:26:43.227Z,3.7
2023-01-09T17:28:42.715Z,3.7
2023-01-09T17:30:39.805Z,3.7
2023-01-09T17:32:40.762Z,3.6
2023-01-09T17:34:39.791Z,3.7
2023-01-09T17:36:45.175Z,3.8
2023-01-09T17:38:43.513Z,3.8
2023-01-09T17:40:40.888Z,3.9
2023-01-09T17:42:42.579Z,3.8
2023-01-09T17:44:43.469Z,3.8
2023-01-09T17:46:42.054Z,3.9
2023-01-09T17:48:41.596Z,4
2023-01-09T17:50:42.081Z,3.9
2023-01-09T17:52:43.946Z,4
2023-01-09T17:54:39.435Z,4.2
2023-01-09T17:56:44.927Z,4.1
2023-01-09T17:58:41.513Z,4.1
2023-01-09T18:00:44.323Z,4.1
2023-01-09T18:02:40.167Z,4.1
2023-01-09T18:04:45.718Z,4.1
2023-01-09T18:06:46.217Z,4.2
2023-01-09T18:08:42.667Z,4.2
2023-01-09T18:10:44.016Z,4.2
2023-01-09T18:12:42.685Z,4.2
2023-01-09T18:14:40.865Z,4.2
2023-01-09T18:18:44.800Z,4.1
2023-01-09T18:20:39.836Z,4.1
2023-01-09T18:22:44.882Z,4.1
2023-01-09T18:24:41.567Z,4
2023-01-09T18:28:42.325Z,4
2023-01-09T18:30:43.307Z,4
2023-01-09T18:32:41.697Z,4.1
2023-01-09T18:34:41.695Z,4
2023-01-09T18:36:44.399Z,4
2023-01-09T18:38:43.625Z,3.9
2023-01-09T18:40:43.886Z,4
2023-01-09T18:44:47.540Z,4
2023-01-09T18:46:44.436Z,4
2023-01-09T18:48:48.413Z,4
2023-01-09T18:50:50.391Z,4
2023-01-09T18:52:43.928Z,4
2023-01-09T18:54:46.800Z,4
2023-01-09T18:56:49.327Z,4
2023-01-09T18:58:46.703Z,3.9
2023-01-09T19:00:48.639Z,3.9
2023-01-09T19:02:50.402Z,3.9
2023-01-09T19:04:44.850Z,3.9
2023-01-09T19:06:49.263Z,4
2023-01-09T19:08:45.772Z,4
2023-01-09T19:10:45.774Z,4
2023-01-09T19:12:45.409Z,3.9
2023-01-09T19:14:45.778Z,4
2023-01-09T19:16:47.648Z,3.9
2023-01-09T19:18:45.726Z,3.9
2023-01-09T19:20:43.479Z,3.9
2023-01-09T19:22:45.630Z,4
2023-01-09T19:24:47.673Z,4
2023-01-09T19:26:48.885Z,4
2023-01-09T19:28:44.261Z,4.1
2023-01-09T19:30:43.599Z,4
2023-01-09T19:32:48.369Z,4
2023-01-09T19:34:46.855Z,4
2023-01-09T19:36:46.597Z,4
2023-01-09T19:38:51.218Z,4
2023-01-09T19:40:45.855Z,3.9
2023-01-09T19:42:49.846Z,3.9
2023-01-09T19:44:43.497Z,3.8
2023-01-09T19:46:45.733Z,3.7
2023-01-09T19:48:48.125Z,3.6
2023-01-09T19:50:44.009Z,3.6
2023-01-09T19:52:46.371Z,3.7
2023-01-09T19:54:49.094Z,3.7
2023-01-09T19:56:44.670Z,3.6
2023-01-09T19:58:48.801Z,3.7
2023-01-09T20:00:43.546Z,3.8
2023-01-09T20:02:47.211Z,3.8
2023-01-09T20:04:49.204Z,3.8
2023-01-09T20:06:47.089Z,3.8
2023-01-09T20:08:45.828Z,3.8
2023-01-09T20:10:43.509Z,3.8
2023-01-09T20:12:46.629Z,3.7
2023-01-09T20:14:46.391Z,3.8
2023-01-09T20:16:43.576Z,3.7
2023-01-09T20:18:43.485Z,3.7
2023-01-09T20:20:45.888Z,3.7
2023-01-09T20:22:43.553Z,3.7
2023-01-09T20:24:43.500Z,3.7
2023-01-09T20:26:48.084Z,3.8
2023-01-09T20:28:43.582Z,3.8
2023-01-09T20:30:47.429Z,3.7
2023-01-09T20:32:48.574Z,3.7
2023-01-09T20:34:45.747Z,3.7
2023-01-09T20:36:43.544Z,3.7
2023-01-09T20:38:46.103Z,3.7
2023-01-09T20:40:43.506Z,3.7
2023-01-09T20:42:47.289Z,3.7
2023-01-09T20:44:46.947Z,3.7
2023-01-09T20:46:46.099Z,3.7
2023-01-09T20:48:44.397Z,3.7
2023-01-09T20:50:44.374Z,3.7
2023-01-09T20:52:43.505Z,3.7
2023-01-09T20:54:43.488Z,3.7
2023-01-09T20:56:47.429Z,3.7
2023-01-09T20:58:49.466Z,3.7
2023-01-09T21:00:43.613Z,3.7
2023-01-09T21:02:47.182Z,3.7
2023-01-09T21:04:48.912Z,3.7
2023-01-09T21:06:50.499Z,3.7
2023-01-09T21:08:48.894Z,3.7
2023-01-09T21:10:43.490Z,3.7
2023-01-09T21:12:49.389Z,3.6
2023-01-09T21:14:49.435Z,3.7
2023-01-09T21:16:47.859Z,3.6
2023-01-09T21:18:46.058Z,3.6
2023-01-09T21:20:43.485Z,3.6
2023-01-09T21:22:43.504Z,3.6
2023-01-09T21:24:47.984Z,3.6
2023-01-09T21:26:45.414Z,3.6
2023-01-09T21:28:48.907Z,3.6
2023-01-09T21:30:47.052Z,3.6
2023-01-09T21:32:50.512Z,3.6
2023-01-09T21:34:43.493Z,3.6
2023-01-09T21:36:43.569Z,3.5
2023-01-09T21:38:43.495Z,3.5
2023-01-09T21:40:45.783Z,3.5
2023-01-09T21:42:48.312Z,3.4
2023-01-09T21:44:43.502Z,3.4
2023-01-09T21:48:46.979Z,3.5
2023-01-09T21:50:45.807Z,3.5
2023-01-09T21:52:47.438Z,3.5
2023-01-09T21:54:43.527Z,3.4
2023-01-09T21:56:45.835Z,3.4
2023-01-09T21:58:43.504Z,3.4
2023-01-09T22:00:43.545Z,3.4
2023-01-09T22:02:45.764Z,3.4
2023-01-09T22:04:43.502Z,3.4
2023-01-09T22:06:48.964Z,3.4
2023-01-09T22:10:47.192Z,3.4
2023-01-09T22:12:46.851Z,3.4
2023-01-09T22:14:45.410Z,3.4
2023-01-09T22:16:48.786Z,3.4
2023-01-09T22:18:46.755Z,3.4
2023-01-09T22:20:48.012Z,3.4
2023-01-09T22:22:49.872Z,3.4
2023-01-09T22:24:43.979Z,3.4
2023-01-09T22:26:47.222Z,3.4
2023-01-09T22:28:48.514Z,3.4
2023-01-09T22:30:43.511Z,3.4
2023-01-09T22:32:43.533Z,3.4
2023-01-09T22:34:50.174Z,3.4
2023-01-09T22:36:43.544Z,3.4
2023-01-09T22:38:43.504Z,3.4
2023-01-09T22:40:48.912Z,3.4
2023-01-09T22:42:49.831Z,3.4
2023-01-09T22:44:49.392Z,3.4
2023-01-09T22:46:47.675Z,3.4
2023-01-09T22:48:43.534Z,3.4
2023-01-09T22:50:46.274Z,3.4
2023-01-09T22:52:43.516Z,3.4
2023-01-09T22:54:44.996Z,3.4
2023-01-09T22:56:47.654Z,3.5
2023-01-09T22:58:48.931Z,3.5
2023-01-09T23:00:49.090Z,3.5
2023-01-09T23:02:43.741Z,3.5
2023-01-09T23:04:44.208Z,3.5
2023-01-09T23:06:45.011Z,3.5
2023-01-09T23:08:43.514Z,3.4
2023-01-09T23:12:46.765Z,3.4
2023-01-09T23:14:43.533Z,3.4
2023-01-09T23:16:43.520Z,3.4
2023-01-09T23:18:46.742Z,3.4
2023-01-09T23:20:44.853Z,3.4
2023-01-09T23:22:43.598Z,3.4
2023-01-09T23:24:46.800Z,3.4
2023-01-09T23:26:44.118Z,3.4
2023-01-09T23:28:44.959Z,3.4
2023-01-09T23:30:46.399Z,3.4
2023-01-09T23:32:43.543Z,3.4
2023-01-09T23:34:43.661Z,3.4
2023-01-09T23:36:43.678Z,3.4
2023-01-09T23:38:43.883Z,3.4
2023-01-09T23:40:43.929Z,3.3
2023-01-09T23:42:44.109Z,3.4
2023-01-09T23:44:43.523Z,3.4
2023-01-09T23:46:43.523Z,3.4
2023-01-09T23:48:43.523Z,3.4
2023-01-09T23:50:49.491Z,3.4
2023-01-09T23:52:46.935Z,3.4
2023-01-09T23:54:43.630Z,3.4
2023-01-09T23:56:46.747Z,3.4
2023-01-09T23:58:43.520Z,3.5
